sensor_id;sensor_type;location;lat;lon;timestamp;P1;durP1;ratioP1;P2;durP2;ratioP2
21705;SDS011;11014;53.076;18.208;2023-02-15T00:01:18;165.55;;;37.92;;
21705;SDS011;11014;53.076;18.208;2023-02-15T00:03:47;167.05;;;38.33;;
21705;SDS011;11014;53.076;18.208;2023-02-15T00:06:16;166.88;;;40.65;;
21705;SDS011;11014;53.076;18.208;2023-02-15T00:08:45;196.10;;;39.47;;
21705;SDS011;11014;53.076;18.208;2023-02-15T00:11:15;242.45;;;43.13;;
21705;SDS011;11014;53.076;18.208;2023-02-15T00:13:45;218.15;;;45.33;;
21705;SDS011;11014;53.076;18.208;2023-02-15T00:16:13;295.17;;;52.85;;
21705;SDS011;11014;53.076;18.208;2023-02-15T00:18:42;184.63;;;43.80;;
21705;SDS011;11014;53.076;18.208;2023-02-15T00:21:10;161.90;;;42.10;;
21705;SDS011;11014;53.076;18.208;2023-02-15T00:23:39;179.85;;;41.17;;
21705;SDS011;11014;53.076;18.208;2023-02-15T00:26:08;207.95;;;42.60;;
21705;SDS011;11014;53.076;18.208;2023-02-15T00:28:40;156.32;;;39.67;;
21705;SDS011;11014;53.076;18.208;2023-02-15T00:31:09;171.70;;;41.70;;
21705;SDS011;11014;53.076;18.208;2023-02-15T00:33:39;157.77;;;39.22;;
21705;SDS011;11014;53.076;18.208;2023-02-15T00:36:08;153.68;;;40.20;;
21705;SDS011;11014;53.076;18.208;2023-02-15T00:38:39;160.27;;;41.23;;
21705;SDS011;11014;53.076;18.208;2023-02-15T00:41:08;133.95;;;38.80;;
21705;SDS011;11014;53.076;18.208;2023-02-15T00:43:38;172.23;;;40.97;;
21705;SDS011;11014;53.076;18.208;2023-02-15T00:46:07;141.38;;;37.97;;
21705;SDS011;11014;53.076;18.208;2023-02-15T00:48:36;136.77;;;39.00;;
21705;SDS011;11014;53.076;18.208;2023-02-15T00:51:04;166.23;;;37.65;;
21705;SDS011;11014;53.076;18.208;2023-02-15T00:53:33;179.10;;;39.60;;
21705;SDS011;11014;53.076;18.208;2023-02-15T00:56:01;241.55;;;42.30;;
21705;SDS011;11014;53.076;18.208;2023-02-15T00:58:31;176.63;;;40.25;;
21705;SDS011;11014;53.076;18.208;2023-02-15T01:01:03;213.63;;;42.53;;
21705;SDS011;11014;53.076;18.208;2023-02-15T01:03:34;150.07;;;37.35;;
21705;SDS011;11014;53.076;18.208;2023-02-15T01:06:03;156.55;;;37.95;;
21705;SDS011;11014;53.076;18.208;2023-02-15T01:08:33;216.57;;;41.75;;
21705;SDS011;11014;53.076;18.208;2023-02-15T01:11:05;200.05;;;40.83;;
21705;SDS011;11014;53.076;18.208;2023-02-15T01:13:36;162.98;;;38.65;;
21705;SDS011;11014;53.076;18.208;2023-02-15T01:16:07;128.15;;;37.08;;
21705;SDS011;11014;53.076;18.208;2023-02-15T01:18:36;149.00;;;38.45;;
21705;SDS011;11014;53.076;18.208;2023-02-15T01:21:11;111.07;;;35.60;;
21705;SDS011;11014;53.076;18.208;2023-02-15T01:23:44;143.50;;;37.13;;
21705;SDS011;11014;53.076;18.208;2023-02-15T01:26:13;174.43;;;36.10;;
21705;SDS011;11014;53.076;18.208;2023-02-15T01:28:44;141.90;;;36.63;;
21705;SDS011;11014;53.076;18.208;2023-02-15T01:31:16;170.07;;;35.95;;
21705;SDS011;11014;53.076;18.208;2023-02-15T01:33:48;162.70;;;35.65;;
21705;SDS011;11014;53.076;18.208;2023-02-15T01:36:16;227.68;;;36.42;;
21705;SDS011;11014;53.076;18.208;2023-02-15T01:38:45;155.73;;;36.33;;
21705;SDS011;11014;53.076;18.208;2023-02-15T01:41:14;145.82;;;36.50;;
21705;SDS011;11014;53.076;18.208;2023-02-15T01:43:55;105.07;;;34.70;;
21705;SDS011;11014;53.076;18.208;2023-02-15T01:49:08;100.72;;;34.22;;
21705;SDS011;11014;53.076;18.208;2023-02-15T01:51:48;100.28;;;34.97;;
21705;SDS011;11014;53.076;18.208;2023-02-15T01:56:59;98.90;;;34.05;;
21705;SDS011;11014;53.076;18.208;2023-02-15T01:59:31;97.40;;;35.17;;
21705;SDS011;11014;53.076;18.208;2023-02-15T02:02:03;109.68;;;36.53;;
21705;SDS011;11014;53.076;18.208;2023-02-15T02:04:46;98.72;;;36.30;;
21705;SDS011;11014;53.076;18.208;2023-02-15T02:07:22;114.03;;;38.42;;
21705;SDS011;11014;53.076;18.208;2023-02-15T02:09:54;107.03;;;38.33;;
21705;SDS011;11014;53.076;18.208;2023-02-15T02:12:24;102.20;;;37.50;;
21705;SDS011;11014;53.076;18.208;2023-02-15T02:14:53;104.80;;;38.42;;
21705;SDS011;11014;53.076;18.208;2023-02-15T02:25:52;119.47;;;41.55;;
21705;SDS011;11014;53.076;18.208;2023-02-15T02:31:40;120.05;;;41.88;;
21705;SDS011;11014;53.076;18.208;2023-02-15T02:34:46;109.97;;;37.38;;
21705;SDS011;11014;53.076;18.208;2023-02-15T02:46:46;101.28;;;34.72;;
21705;SDS011;11014;53.076;18.208;2023-02-15T02:49:31;113.07;;;36.40;;
21705;SDS011;11014;53.076;18.208;2023-02-15T02:52:01;106.95;;;37.17;;
21705;SDS011;11014;53.076;18.208;2023-02-15T02:54:34;104.35;;;36.53;;
21705;SDS011;11014;53.076;18.208;2023-02-15T02:57:04;101.13;;;35.85;;
21705;SDS011;11014;53.076;18.208;2023-02-15T02:59:38;107.57;;;36.38;;
21705;SDS011;11014;53.076;18.208;2023-02-15T03:02:22;108.82;;;37.08;;
21705;SDS011;11014;53.076;18.208;2023-02-15T03:05:00;115.97;;;36.50;;
21705;SDS011;11014;53.076;18.208;2023-02-15T03:07:35;106.50;;;37.28;;
21705;SDS011;11014;53.076;18.208;2023-02-15T03:10:05;110.25;;;37.05;;
21705;SDS011;11014;53.076;18.208;2023-02-15T03:12:37;103.95;;;36.97;;
21705;SDS011;11014;53.076;18.208;2023-02-15T03:15:13;99.82;;;36.78;;
21705;SDS011;11014;53.076;18.208;2023-02-15T03:17:47;109.18;;;36.83;;
21705;SDS011;11014;53.076;18.208;2023-02-15T03:20:22;109.60;;;35.13;;
21705;SDS011;11014;53.076;18.208;2023-02-15T03:22:55;110.45;;;36.42;;
21705;SDS011;11014;53.076;18.208;2023-02-15T03:25:32;111.65;;;36.75;;
21705;SDS011;11014;53.076;18.208;2023-02-15T03:28:06;114.28;;;38.53;;
21705;SDS011;11014;53.076;18.208;2023-02-15T03:30:39;129.00;;;36.83;;
21705;SDS011;11014;53.076;18.208;2023-02-15T03:33:15;121.85;;;37.70;;
21705;SDS011;11014;53.076;18.208;2023-02-15T03:35:49;134.70;;;38.58;;
21705;SDS011;11014;53.076;18.208;2023-02-15T03:38:34;134.77;;;40.40;;
21705;SDS011;11014;53.076;18.208;2023-02-15T03:41:10;141.00;;;42.80;;
21705;SDS011;11014;53.076;18.208;2023-02-15T03:49:04;117.80;;;38.30;;
21705;SDS011;11014;53.076;18.208;2023-02-15T03:51:39;123.80;;;39.63;;
21705;SDS011;11014;53.076;18.208;2023-02-15T03:54:14;115.47;;;39.85;;
21705;SDS011;11014;53.076;18.208;2023-02-15T03:57:07;128.95;;;41.13;;
21705;SDS011;11014;53.076;18.208;2023-02-15T03:59:57;116.28;;;40.30;;
21705;SDS011;11014;53.076;18.208;2023-02-15T04:02:52;120.32;;;40.42;;
21705;SDS011;11014;53.076;18.208;2023-02-15T04:05:32;101.95;;;39.03;;
21705;SDS011;11014;53.076;18.208;2023-02-15T04:08:01;113.57;;;39.88;;
21705;SDS011;11014;53.076;18.208;2023-02-15T04:10:30;112.78;;;40.63;;
21705;SDS011;11014;53.076;18.208;2023-02-15T04:13:18;102.28;;;39.88;;
21705;SDS011;11014;53.076;18.208;2023-02-15T04:15:51;108.53;;;40.28;;
21705;SDS011;11014;53.076;18.208;2023-02-15T04:18:38;105.20;;;43.50;;
21705;SDS011;11014;53.076;18.208;2023-02-15T04:21:27;112.53;;;41.63;;
21705;SDS011;11014;53.076;18.208;2023-02-15T04:24:17;105.72;;;41.72;;
21705;SDS011;11014;53.076;18.208;2023-02-15T04:27:04;107.72;;;38.80;;
21705;SDS011;11014;53.076;18.208;2023-02-15T04:29:33;110.03;;;41.22;;
21705;SDS011;11014;53.076;18.208;2023-02-15T04:32:02;130.32;;;42.15;;
21705;SDS011;11014;53.076;18.208;2023-02-15T04:34:31;114.00;;;42.55;;
21705;SDS011;11014;53.076;18.208;2023-02-15T04:36:59;120.72;;;44.80;;
21705;SDS011;11014;53.076;18.208;2023-02-15T04:39:28;114.80;;;43.42;;
21705;SDS011;11014;53.076;18.208;2023-02-15T04:41:56;112.95;;;42.00;;
21705;SDS011;11014;53.076;18.208;2023-02-15T04:44:25;115.15;;;41.35;;
21705;SDS011;11014;53.076;18.208;2023-02-15T04:46:53;114.38;;;40.20;;
21705;SDS011;11014;53.076;18.208;2023-02-15T04:49:23;117.57;;;40.78;;
21705;SDS011;11014;53.076;18.208;2023-02-15T04:51:51;98.72;;;39.22;;
21705;SDS011;11014;53.076;18.208;2023-02-15T04:54:20;107.30;;;40.42;;
21705;SDS011;11014;53.076;18.208;2023-02-15T04:56:48;115.28;;;43.33;;
21705;SDS011;11014;53.076;18.208;2023-02-15T04:59:17;106.78;;;37.78;;
21705;SDS011;11014;53.076;18.208;2023-02-15T05:01:46;107.82;;;39.47;;
21705;SDS011;11014;53.076;18.208;2023-02-15T05:04:15;103.88;;;39.25;;
21705;SDS011;11014;53.076;18.208;2023-02-15T05:06:43;107.57;;;39.72;;
21705;SDS011;11014;53.076;18.208;2023-02-15T05:09:12;109.20;;;40.65;;
21705;SDS011;11014;53.076;18.208;2023-02-15T05:11:41;114.80;;;42.80;;
21705;SDS011;11014;53.076;18.208;2023-02-15T05:14:09;134.90;;;48.72;;
21705;SDS011;11014;53.076;18.208;2023-02-15T05:16:38;114.03;;;45.97;;
21705;SDS011;11014;53.076;18.208;2023-02-15T05:19:06;136.63;;;50.95;;
21705;SDS011;11014;53.076;18.208;2023-02-15T05:21:35;139.30;;;51.03;;
21705;SDS011;11014;53.076;18.208;2023-02-15T05:24:04;141.07;;;53.42;;
21705;SDS011;11014;53.076;18.208;2023-02-15T05:26:52;133.85;;;49.63;;
21705;SDS011;11014;53.076;18.208;2023-02-15T05:29:39;131.27;;;48.60;;
21705;SDS011;11014;53.076;18.208;2023-02-15T05:32:08;129.30;;;46.83;;
21705;SDS011;11014;53.076;18.208;2023-02-15T05:34:37;123.07;;;46.83;;
21705;SDS011;11014;53.076;18.208;2023-02-15T05:37:05;115.63;;;46.83;;
21705;SDS011;11014;53.076;18.208;2023-02-15T05:39:35;129.63;;;45.65;;
21705;SDS011;11014;53.076;18.208;2023-02-15T05:42:04;118.03;;;43.60;;
21705;SDS011;11014;53.076;18.208;2023-02-15T05:44:32;115.40;;;43.30;;
21705;SDS011;11014;53.076;18.208;2023-02-15T05:47:01;113.18;;;42.97;;
21705;SDS011;11014;53.076;18.208;2023-02-15T05:49:31;132.57;;;45.10;;
21705;SDS011;11014;53.076;18.208;2023-02-15T05:51:59;122.18;;;44.47;;
21705;SDS011;11014;53.076;18.208;2023-02-15T05:54:28;121.10;;;46.63;;
21705;SDS011;11014;53.076;18.208;2023-02-15T05:56:57;121.07;;;43.15;;
21705;SDS011;11014;53.076;18.208;2023-02-15T05:59:25;119.78;;;44.40;;
21705;SDS011;11014;53.076;18.208;2023-02-15T06:01:54;121.80;;;47.22;;
21705;SDS011;11014;53.076;18.208;2023-02-15T06:04:23;144.30;;;51.33;;
21705;SDS011;11014;53.076;18.208;2023-02-15T06:07:10;133.48;;;51.55;;
21705;SDS011;11014;53.076;18.208;2023-02-15T06:09:40;146.50;;;52.35;;
21705;SDS011;11014;53.076;18.208;2023-02-15T06:12:08;141.88;;;56.22;;
21705;SDS011;11014;53.076;18.208;2023-02-15T06:14:37;141.38;;;55.33;;
21705;SDS011;11014;53.076;18.208;2023-02-15T06:17:06;150.00;;;56.00;;
21705;SDS011;11014;53.076;18.208;2023-02-15T06:19:34;141.15;;;54.25;;
21705;SDS011;11014;53.076;18.208;2023-02-15T06:22:03;159.57;;;56.40;;
21705;SDS011;11014;53.076;18.208;2023-02-15T06:24:32;133.77;;;51.22;;
21705;SDS011;11014;53.076;18.208;2023-02-15T06:27:00;130.70;;;50.88;;
21705;SDS011;11014;53.076;18.208;2023-02-15T06:29:29;126.63;;;50.13;;
21705;SDS011;11014;53.076;18.208;2023-02-15T06:31:57;133.43;;;49.47;;
21705;SDS011;11014;53.076;18.208;2023-02-15T06:34:26;120.78;;;48.85;;
21705;SDS011;11014;53.076;18.208;2023-02-15T06:36:55;124.60;;;49.55;;
21705;SDS011;11014;53.076;18.208;2023-02-15T06:39:24;118.00;;;48.35;;
21705;SDS011;11014;53.076;18.208;2023-02-15T06:41:52;133.10;;;51.28;;
21705;SDS011;11014;53.076;18.208;2023-02-15T06:44:21;139.90;;;52.25;;
21705;SDS011;11014;53.076;18.208;2023-02-15T06:46:49;138.15;;;50.70;;
21705;SDS011;11014;53.076;18.208;2023-02-15T06:49:18;134.68;;;49.83;;
21705;SDS011;11014;53.076;18.208;2023-02-15T06:51:46;132.30;;;48.75;;
21705;SDS011;11014;53.076;18.208;2023-02-15T06:54:15;146.98;;;53.38;;
21705;SDS011;11014;53.076;18.208;2023-02-15T06:56:44;151.55;;;53.00;;
21705;SDS011;11014;53.076;18.208;2023-02-15T06:59:12;146.43;;;53.80;;
21705;SDS011;11014;53.076;18.208;2023-02-15T07:01:41;153.88;;;57.30;;
21705;SDS011;11014;53.076;18.208;2023-02-15T07:04:09;152.02;;;57.38;;
21705;SDS011;11014;53.076;18.208;2023-02-15T07:06:38;149.35;;;57.38;;
21705;SDS011;11014;53.076;18.208;2023-02-15T07:09:07;153.23;;;57.35;;
21705;SDS011;11014;53.076;18.208;2023-02-15T07:11:35;152.00;;;58.10;;
21705;SDS011;11014;53.076;18.208;2023-02-15T07:14:42;189.05;;;68.07;;
21705;SDS011;11014;53.076;18.208;2023-02-15T07:17:10;182.95;;;71.38;;
21705;SDS011;11014;53.076;18.208;2023-02-15T07:19:59;190.60;;;73.45;;
21705;SDS011;11014;53.076;18.208;2023-02-15T07:22:28;191.50;;;76.22;;
21705;SDS011;11014;53.076;18.208;2023-02-15T07:24:58;237.32;;;102.57;;
21705;SDS011;11014;53.076;18.208;2023-02-15T07:27:26;247.70;;;106.13;;
21705;SDS011;11014;53.076;18.208;2023-02-15T07:29:55;302.45;;;128.82;;
21705;SDS011;11014;53.076;18.208;2023-02-15T07:32:23;250.85;;;97.28;;
21705;SDS011;11014;53.076;18.208;2023-02-15T07:34:55;193.57;;;80.03;;
21705;SDS011;11014;53.076;18.208;2023-02-15T07:37:23;161.18;;;67.75;;
21705;SDS011;11014;53.076;18.208;2023-02-15T07:39:52;141.02;;;58.72;;
21705;SDS011;11014;53.076;18.208;2023-02-15T07:42:21;126.88;;;57.65;;
21705;SDS011;11014;53.076;18.208;2023-02-15T07:44:51;133.85;;;59.53;;
21705;SDS011;11014;53.076;18.208;2023-02-15T07:47:20;142.18;;;61.00;;
21705;SDS011;11014;53.076;18.208;2023-02-15T07:49:49;136.13;;;63.47;;
21705;SDS011;11014;53.076;18.208;2023-02-15T07:52:17;138.73;;;61.25;;
21705;SDS011;11014;53.076;18.208;2023-02-15T07:54:46;132.05;;;63.40;;
21705;SDS011;11014;53.076;18.208;2023-02-15T07:57:14;132.00;;;61.42;;
21705;SDS011;11014;53.076;18.208;2023-02-15T07:59:43;126.07;;;60.58;;
21705;SDS011;11014;53.076;18.208;2023-02-15T08:02:11;114.60;;;57.95;;
21705;SDS011;11014;53.076;18.208;2023-02-15T08:04:40;104.85;;;53.95;;
21705;SDS011;11014;53.076;18.208;2023-02-15T08:07:09;108.05;;;53.78;;
21705;SDS011;11014;53.076;18.208;2023-02-15T08:09:38;103.15;;;50.63;;
21705;SDS011;11014;53.076;18.208;2023-02-15T08:12:06;91.07;;;45.13;;
21705;SDS011;11014;53.076;18.208;2023-02-15T08:14:35;87.80;;;44.85;;
21705;SDS011;11014;53.076;18.208;2023-02-15T08:17:03;85.40;;;44.65;;
21705;SDS011;11014;53.076;18.208;2023-02-15T08:19:33;79.78;;;40.28;;
21705;SDS011;11014;53.076;18.208;2023-02-15T08:22:06;73.82;;;38.97;;
21705;SDS011;11014;53.076;18.208;2023-02-15T08:24:36;78.30;;;38.28;;
21705;SDS011;11014;53.076;18.208;2023-02-15T08:27:06;82.60;;;42.03;;
21705;SDS011;11014;53.076;18.208;2023-02-15T08:29:37;83.35;;;41.92;;
21705;SDS011;11014;53.076;18.208;2023-02-15T08:32:08;80.88;;;42.38;;
21705;SDS011;11014;53.076;18.208;2023-02-15T08:34:39;76.70;;;40.00;;
21705;SDS011;11014;53.076;18.208;2023-02-15T08:37:09;89.78;;;42.67;;
21705;SDS011;11014;53.076;18.208;2023-02-15T08:39:38;83.40;;;42.80;;
21705;SDS011;11014;53.076;18.208;2023-02-15T08:42:17;76.63;;;38.78;;
21705;SDS011;11014;53.076;18.208;2023-02-15T08:44:49;76.32;;;38.20;;
21705;SDS011;11014;53.076;18.208;2023-02-15T08:47:19;69.90;;;38.33;;
21705;SDS011;11014;53.076;18.208;2023-02-15T08:49:48;67.53;;;36.22;;
21705;SDS011;11014;53.076;18.208;2023-02-15T08:52:17;73.57;;;38.83;;
21705;SDS011;11014;53.076;18.208;2023-02-15T08:54:46;75.70;;;39.42;;
21705;SDS011;11014;53.076;18.208;2023-02-15T08:57:14;74.25;;;38.88;;
21705;SDS011;11014;53.076;18.208;2023-02-15T08:59:43;77.35;;;40.05;;
21705;SDS011;11014;53.076;18.208;2023-02-15T09:02:11;76.68;;;42.00;;
21705;SDS011;11014;53.076;18.208;2023-02-15T09:04:40;61.67;;;35.38;;
21705;SDS011;11014;53.076;18.208;2023-02-15T09:07:09;61.42;;;34.03;;
21705;SDS011;11014;53.076;18.208;2023-02-15T09:09:37;52.63;;;30.98;;
21705;SDS011;11014;53.076;18.208;2023-02-15T09:12:06;49.30;;;29.77;;
21705;SDS011;11014;53.076;18.208;2023-02-15T09:14:35;56.38;;;31.08;;
21705;SDS011;11014;53.076;18.208;2023-02-15T09:17:03;48.45;;;29.38;;
21705;SDS011;11014;53.076;18.208;2023-02-15T09:19:32;53.33;;;30.67;;
21705;SDS011;11014;53.076;18.208;2023-02-15T09:22:15;44.72;;;28.95;;
21705;SDS011;11014;53.076;18.208;2023-02-15T09:24:43;49.50;;;28.85;;
21705;SDS011;11014;53.076;18.208;2023-02-15T09:27:12;44.83;;;27.85;;
21705;SDS011;11014;53.076;18.208;2023-02-15T09:29:40;49.22;;;29.92;;
21705;SDS011;11014;53.076;18.208;2023-02-15T09:32:09;46.47;;;29.10;;
21705;SDS011;11014;53.076;18.208;2023-02-15T09:34:42;43.83;;;28.80;;
21705;SDS011;11014;53.076;18.208;2023-02-15T09:37:11;47.53;;;27.85;;
21705;SDS011;11014;53.076;18.208;2023-02-15T09:39:40;44.90;;;27.42;;
21705;SDS011;11014;53.076;18.208;2023-02-15T10:15:06;45.97;;;27.30;;
21705;SDS011;11014;53.076;18.208;2023-02-15T10:20:44;45.80;;;29.95;;
21705;SDS011;11014;53.076;18.208;2023-02-15T10:24:25;46.90;;;28.88;;
21705;SDS011;11014;53.076;18.208;2023-02-15T10:27:27;47.95;;;30.08;;
21705;SDS011;11014;53.076;18.208;2023-02-15T10:33:35;47.78;;;28.92;;
21705;SDS011;11014;53.076;18.208;2023-02-15T10:41:33;49.50;;;31.00;;
21705;SDS011;11014;53.076;18.208;2023-02-15T10:44:24;52.63;;;30.58;;
21705;SDS011;11014;53.076;18.208;2023-02-15T10:56:19;49.40;;;30.45;;
21705;SDS011;11014;53.076;18.208;2023-02-15T11:01:55;55.25;;;33.15;;
21705;SDS011;11014;53.076;18.208;2023-02-15T11:05:02;52.20;;;31.73;;
21705;SDS011;11014;53.076;18.208;2023-02-15T11:13:34;50.47;;;31.45;;
21705;SDS011;11014;53.076;18.208;2023-02-15T11:16:16;49.88;;;31.13;;
21705;SDS011;11014;53.076;18.208;2023-02-15T11:18:56;51.88;;;31.88;;
21705;SDS011;11014;53.076;18.208;2023-02-15T11:21:32;51.80;;;31.10;;
21705;SDS011;11014;53.076;18.208;2023-02-15T11:24:41;56.65;;;31.63;;
21705;SDS011;11014;53.076;18.208;2023-02-15T11:27:23;58.47;;;34.90;;
21705;SDS011;11014;53.076;18.208;2023-02-15T11:30:04;55.22;;;33.85;;
21705;SDS011;11014;53.076;18.208;2023-02-15T11:32:43;53.17;;;31.70;;
21705;SDS011;11014;53.076;18.208;2023-02-15T11:35:20;53.40;;;33.58;;
21705;SDS011;11014;53.076;18.208;2023-02-15T11:38:26;50.67;;;32.15;;
21705;SDS011;11014;53.076;18.208;2023-02-15T11:41:08;50.72;;;30.70;;
21705;SDS011;11014;53.076;18.208;2023-02-15T11:43:43;54.95;;;32.63;;
21705;SDS011;11014;53.076;18.208;2023-02-15T11:46:23;54.28;;;32.83;;
21705;SDS011;11014;53.076;18.208;2023-02-15T11:48:51;55.05;;;34.47;;
21705;SDS011;11014;53.076;18.208;2023-02-15T11:51:20;56.45;;;33.22;;
21705;SDS011;11014;53.076;18.208;2023-02-15T11:53:52;51.10;;;33.60;;
21705;SDS011;11014;53.076;18.208;2023-02-15T11:56:22;52.78;;;31.63;;
21705;SDS011;11014;53.076;18.208;2023-02-15T11:59:01;52.30;;;33.00;;
21705;SDS011;11014;53.076;18.208;2023-02-15T12:01:35;52.90;;;32.03;;
21705;SDS011;11014;53.076;18.208;2023-02-15T12:04:18;52.42;;;31.58;;
21705;SDS011;11014;53.076;18.208;2023-02-15T12:09:38;53.08;;;32.83;;
21705;SDS011;11014;53.076;18.208;2023-02-15T12:12:33;53.50;;;31.33;;
21705;SDS011;11014;53.076;18.208;2023-02-15T12:15:05;48.88;;;30.38;;
21705;SDS011;11014;53.076;18.208;2023-02-15T12:17:38;57.45;;;33.13;;
21705;SDS011;11014;53.076;18.208;2023-02-15T12:20:33;55.15;;;31.23;;
21705;SDS011;11014;53.076;18.208;2023-02-15T12:23:06;53.05;;;30.73;;
21705;SDS011;11014;53.076;18.208;2023-02-15T12:25:53;51.92;;;32.80;;
21705;SDS011;11014;53.076;18.208;2023-02-15T12:31:19;51.30;;;33.28;;
21705;SDS011;11014;53.076;18.208;2023-02-15T12:33:52;59.60;;;35.10;;
21705;SDS011;11014;53.076;18.208;2023-02-15T12:36:30;64.45;;;36.63;;
21705;SDS011;11014;53.076;18.208;2023-02-15T12:39:02;60.13;;;34.88;;
21705;SDS011;11014;53.076;18.208;2023-02-15T12:41:36;56.97;;;34.40;;
21705;SDS011;11014;53.076;18.208;2023-02-15T12:44:18;61.27;;;34.77;;
21705;SDS011;11014;53.076;18.208;2023-02-15T12:47:02;58.40;;;34.92;;
21705;SDS011;11014;53.076;18.208;2023-02-15T12:49:36;57.50;;;35.78;;
21705;SDS011;11014;53.076;18.208;2023-02-15T12:52:15;56.75;;;33.78;;
21705;SDS011;11014;53.076;18.208;2023-02-15T12:54:52;64.68;;;36.30;;
21705;SDS011;11014;53.076;18.208;2023-02-15T12:59:54;70.13;;;39.83;;
21705;SDS011;11014;53.076;18.208;2023-02-15T13:02:50;68.03;;;38.10;;
21705;SDS011;11014;53.076;18.208;2023-02-15T13:08:13;63.97;;;37.05;;
21705;SDS011;11014;53.076;18.208;2023-02-15T13:10:54;64.80;;;37.97;;
21705;SDS011;11014;53.076;18.208;2023-02-15T13:13:53;66.07;;;37.03;;
21705;SDS011;11014;53.076;18.208;2023-02-15T13:16:30;65.60;;;36.90;;
21705;SDS011;11014;53.076;18.208;2023-02-15T13:19:05;59.58;;;34.47;;
21705;SDS011;11014;53.076;18.208;2023-02-15T13:21:41;56.42;;;34.25;;
21705;SDS011;11014;53.076;18.208;2023-02-15T13:24:23;62.30;;;36.63;;
21705;SDS011;11014;53.076;18.208;2023-02-15T13:26:56;61.08;;;35.05;;
21705;SDS011;11014;53.076;18.208;2023-02-15T13:29:43;59.38;;;35.65;;
21705;SDS011;11014;53.076;18.208;2023-02-15T13:32:25;60.75;;;36.63;;
21705;SDS011;11014;53.076;18.208;2023-02-15T13:34:56;59.25;;;35.85;;
21705;SDS011;11014;53.076;18.208;2023-02-15T13:49:00;64.07;;;36.80;;
21705;SDS011;11014;53.076;18.208;2023-02-15T14:08:19;67.15;;;37.85;;
21705;SDS011;11014;53.076;18.208;2023-02-15T14:16:54;70.65;;;38.40;;
21705;SDS011;11014;53.076;18.208;2023-02-15T14:19:42;66.50;;;38.90;;
21705;SDS011;11014;53.076;18.208;2023-02-15T14:25:27;84.35;;;44.60;;
21705;SDS011;11014;53.076;18.208;2023-02-15T14:28:14;70.90;;;40.65;;
21705;SDS011;11014;53.076;18.208;2023-02-15T14:30:50;73.25;;;40.53;;
21705;SDS011;11014;53.076;18.208;2023-02-15T14:36:12;73.23;;;41.00;;
21705;SDS011;11014;53.076;18.208;2023-02-15T14:42:09;72.20;;;41.10;;
21705;SDS011;11014;53.076;18.208;2023-02-15T14:44:53;73.22;;;39.10;;
21705;SDS011;11014;53.076;18.208;2023-02-15T14:47:35;71.47;;;40.03;;
21705;SDS011;11014;53.076;18.208;2023-02-15T14:50:37;73.53;;;38.67;;
21705;SDS011;11014;53.076;18.208;2023-02-15T14:55:42;69.15;;;39.50;;
21705;SDS011;11014;53.076;18.208;2023-02-15T14:58:12;68.55;;;39.38;;
21705;SDS011;11014;53.076;18.208;2023-02-15T15:00:43;71.35;;;40.20;;
21705;SDS011;11014;53.076;18.208;2023-02-15T15:03:22;73.28;;;39.53;;
21705;SDS011;11014;53.076;18.208;2023-02-15T15:05:54;75.43;;;39.92;;
21705;SDS011;11014;53.076;18.208;2023-02-15T15:08:29;72.97;;;38.95;;
21705;SDS011;11014;53.076;18.208;2023-02-15T15:14:11;71.68;;;39.70;;
21705;SDS011;11014;53.076;18.208;2023-02-15T15:17:02;71.00;;;39.92;;
21705;SDS011;11014;53.076;18.208;2023-02-15T15:22:19;83.07;;;45.35;;
21705;SDS011;11014;53.076;18.208;2023-02-15T15:42:04;65.32;;;37.05;;
21705;SDS011;11014;53.076;18.208;2023-02-15T15:45:02;68.10;;;38.15;;
21705;SDS011;11014;53.076;18.208;2023-02-15T15:51:27;75.30;;;39.95;;
21705;SDS011;11014;53.076;18.208;2023-02-15T15:54:00;70.22;;;38.20;;
21705;SDS011;11014;53.076;18.208;2023-02-15T16:00:43;85.60;;;43.00;;
21705;SDS011;11014;53.076;18.208;2023-02-15T16:03:27;108.93;;;55.72;;
21705;SDS011;11014;53.076;18.208;2023-02-15T16:05:56;73.13;;;39.88;;
21705;SDS011;11014;53.076;18.208;2023-02-15T16:08:34;90.13;;;45.80;;
21705;SDS011;11014;53.076;18.208;2023-02-15T16:11:23;80.78;;;43.88;;
21705;SDS011;11014;53.076;18.208;2023-02-15T16:13:53;78.57;;;45.83;;
21705;SDS011;11014;53.076;18.208;2023-02-15T16:16:31;90.70;;;50.90;;
21705;SDS011;11014;53.076;18.208;2023-02-15T16:19:03;83.88;;;44.85;;
21705;SDS011;11014;53.076;18.208;2023-02-15T16:21:34;82.47;;;44.60;;
21705;SDS011;11014;53.076;18.208;2023-02-15T16:24:08;74.65;;;41.60;;
21705;SDS011;11014;53.076;18.208;2023-02-15T16:29:47;76.57;;;42.90;;
21705;SDS011;11014;53.076;18.208;2023-02-15T16:32:17;77.47;;;40.13;;
21705;SDS011;11014;53.076;18.208;2023-02-15T16:34:57;84.05;;;42.42;;
21705;SDS011;11014;53.076;18.208;2023-02-15T16:37:31;82.32;;;43.03;;
21705;SDS011;11014;53.076;18.208;2023-02-15T16:40:02;76.03;;;41.25;;
21705;SDS011;11014;53.076;18.208;2023-02-15T16:42:31;81.30;;;42.33;;
21705;SDS011;11014;53.076;18.208;2023-02-15T16:47:40;76.75;;;39.80;;
21705;SDS011;11014;53.076;18.208;2023-02-15T16:50:32;77.50;;;39.78;;
21705;SDS011;11014;53.076;18.208;2023-02-15T16:53:04;78.85;;;40.65;;
21705;SDS011;11014;53.076;18.208;2023-02-15T16:56:48;79.05;;;39.33;;
21705;SDS011;11014;53.076;18.208;2023-02-15T17:02:13;80.75;;;40.33;;
21705;SDS011;11014;53.076;18.208;2023-02-15T17:05:16;80.47;;;38.40;;
21705;SDS011;11014;53.076;18.208;2023-02-15T17:10:59;81.80;;;41.75;;
21705;SDS011;11014;53.076;18.208;2023-02-15T17:13:33;120.90;;;54.50;;
21705;SDS011;11014;53.076;18.208;2023-02-15T17:19:23;91.38;;;43.80;;
21705;SDS011;11014;53.076;18.208;2023-02-15T17:21:56;91.10;;;45.03;;
21705;SDS011;11014;53.076;18.208;2023-02-15T17:27:25;95.68;;;48.90;;
21705;SDS011;11014;53.076;18.208;2023-02-15T17:30:00;97.53;;;46.97;;
21705;SDS011;11014;53.076;18.208;2023-02-15T17:32:31;107.13;;;50.58;;
21705;SDS011;11014;53.076;18.208;2023-02-15T17:40:00;113.25;;;54.25;;
21705;SDS011;11014;53.076;18.208;2023-02-15T17:42:33;104.75;;;51.30;;
21705;SDS011;11014;53.076;18.208;2023-02-15T17:45:01;102.72;;;49.92;;
21705;SDS011;11014;53.076;18.208;2023-02-15T17:47:33;105.18;;;52.05;;
21705;SDS011;11014;53.076;18.208;2023-02-15T17:50:03;104.60;;;49.85;;
21705;SDS011;11014;53.076;18.208;2023-02-15T17:52:33;105.93;;;52.08;;
21705;SDS011;11014;53.076;18.208;2023-02-15T17:55:07;117.93;;;54.70;;
21705;SDS011;11014;53.076;18.208;2023-02-15T17:58:00;130.70;;;61.78;;
21705;SDS011;11014;53.076;18.208;2023-02-15T18:00:34;136.98;;;64.05;;
21705;SDS011;11014;53.076;18.208;2023-02-15T18:03:25;128.25;;;58.15;;
21705;SDS011;11014;53.076;18.208;2023-02-15T18:06:24;113.90;;;54.33;;
21705;SDS011;11014;53.076;18.208;2023-02-15T18:09:13;139.05;;;59.10;;